Alicia, Arkansas
Current Conditions -  °F | °C
As of 11:56 PM on Wednesday 22 Oct 2014 (Local Time) from KM19 Reporting Station
Clear Clear  
Wind Chill: 44°   Ceiling: Unl
Heat Index: 47°   Visibility: 10mi
Dew Point: 44°   Wind: 7mph
Humidity: 89%   Direction: 320°NW
Pressure: 30.23"   Gusts: NA
Location:  35.89°N, 91.08°W
Report Text: KM19 230456Z AUTO 32006KT 10SM CLR 08/07 A3023 RMK AO2 T00830066 402000072 SLP234
Loading
Personal Weather Stations






























Interactive Weather Map New forecast layout! Learn more

10-Day Weather Forecast

Advertisements
Track Severe Weather on mobile